Terminal Aerodrome Forecast
Issued by NWS Sterling, VA

Current Version | Previous Version | Graphics & Text | Print | Product List | Glossary On
Versions: 1 2 3 4 5 6 7 8 9 10 11 12 13 14 15
000
FTUS41 KLWX 110500
TAFMRB
TAF
KMRB 110536Z 1106/1206 00000KT 5SM BR FEW050
     FM110700 VRB03KT 2SM BR FEW050
     FM110800 VRB03KT 3/4SM BR BKN008
     FM111300 VRB03KT 5SM BR SCT050
     FM111400 05004KT P6SM SCT050=

USA.gov is the U.S. government's official web portal to all federal, state and local government web resources and services.